sensor_id;sensor_type;location;lat;lon;timestamp;P1;durP1;ratioP1;P2;durP2;ratioP2
70067;SDS011;57425;51.616;6.680;2022-12-18T00:01:02;26.43;;;10.33;;
70067;SDS011;57425;51.616;6.680;2022-12-18T00:03:35;31.13;;;11.60;;
70067;SDS011;57425;51.616;6.680;2022-12-18T00:06:01;23.17;;;10.20;;
70067;SDS011;57425;51.616;6.680;2022-12-18T00:08:27;28.73;;;10.80;;
70067;SDS011;57425;51.616;6.680;2022-12-18T00:10:54;30.20;;;11.17;;
70067;SDS011;57425;51.616;6.680;2022-12-18T00:13:20;33.10;;;10.47;;
70067;SDS011;57425;51.616;6.680;2022-12-18T00:15:46;27.63;;;10.53;;
70067;SDS011;57425;51.616;6.680;2022-12-18T00:18:11;26.57;;;11.23;;
70067;SDS011;57425;51.616;6.680;2022-12-18T00:20:37;26.93;;;10.23;;
70067;SDS011;57425;51.616;6.680;2022-12-18T00:23:04;29.37;;;10.97;;
70067;SDS011;57425;51.616;6.680;2022-12-18T00:25:34;28.03;;;11.47;;
70067;SDS011;57425;51.616;6.680;2022-12-18T00:28:01;28.43;;;11.47;;
70067;SDS011;57425;51.616;6.680;2022-12-18T00:30:29;29.20;;;10.10;;
70067;SDS011;57425;51.616;6.680;2022-12-18T00:32:55;31.77;;;10.47;;
70067;SDS011;57425;51.616;6.680;2022-12-18T00:35:21;30.20;;;10.40;;
70067;SDS011;57425;51.616;6.680;2022-12-18T00:37:46;26.10;;;9.83;;
70067;SDS011;57425;51.616;6.680;2022-12-18T00:40:12;30.57;;;11.87;;
70067;SDS011;57425;51.616;6.680;2022-12-18T00:42:37;33.20;;;10.57;;
70067;SDS011;57425;51.616;6.680;2022-12-18T00:47:55;30.00;;;10.27;;
70067;SDS011;57425;51.616;6.680;2022-12-18T00:50:22;24.37;;;8.73;;
70067;SDS011;57425;51.616;6.680;2022-12-18T00:52:48;23.03;;;7.97;;
70067;SDS011;57425;51.616;6.680;2022-12-18T00:55:14;24.07;;;9.60;;
70067;SDS011;57425;51.616;6.680;2022-12-18T00:57:40;27.20;;;8.70;;
70067;SDS011;57425;51.616;6.680;2022-12-18T01:00:07;26.23;;;10.53;;
70067;SDS011;57425;51.616;6.680;2022-12-18T01:02:35;23.77;;;9.00;;
70067;SDS011;57425;51.616;6.680;2022-12-18T01:05:01;31.70;;;9.53;;
70067;SDS011;57425;51.616;6.680;2022-12-18T01:07:27;23.63;;;8.77;;
70067;SDS011;57425;51.616;6.680;2022-12-18T01:09:53;20.10;;;8.83;;
70067;SDS011;57425;51.616;6.680;2022-12-18T01:12:18;22.30;;;8.87;;
70067;SDS011;57425;51.616;6.680;2022-12-18T01:14:44;21.87;;;9.53;;
70067;SDS011;57425;51.616;6.680;2022-12-18T01:17:09;21.23;;;9.00;;
70067;SDS011;57425;51.616;6.680;2022-12-18T01:19:35;21.10;;;8.73;;
70067;SDS011;57425;51.616;6.680;2022-12-18T01:22:01;21.87;;;7.43;;
70067;SDS011;57425;51.616;6.680;2022-12-18T01:24:26;19.37;;;7.67;;
70067;SDS011;57425;51.616;6.680;2022-12-18T01:26:52;20.00;;;8.40;;
70067;SDS011;57425;51.616;6.680;2022-12-18T01:29:18;22.70;;;8.70;;
70067;SDS011;57425;51.616;6.680;2022-12-18T01:31:43;21.40;;;8.53;;
70067;SDS011;57425;51.616;6.680;2022-12-18T01:34:09;21.23;;;7.80;;
70067;SDS011;57425;51.616;6.680;2022-12-18T01:36:36;24.17;;;8.13;;
70067;SDS011;57425;51.616;6.680;2022-12-18T01:39:04;22.13;;;7.80;;
70067;SDS011;57425;51.616;6.680;2022-12-18T01:41:33;23.60;;;8.37;;
70067;SDS011;57425;51.616;6.680;2022-12-18T01:47:25;17.27;;;7.10;;
70067;SDS011;57425;51.616;6.680;2022-12-18T01:49:54;16.88;;;8.15;;
70067;SDS011;57425;51.616;6.680;2022-12-18T01:52:22;16.07;;;8.33;;
70067;SDS011;57425;51.616;6.680;2022-12-18T01:54:52;20.67;;;8.07;;
70067;SDS011;57425;51.616;6.680;2022-12-18T01:57:18;12.87;;;6.07;;
70067;SDS011;57425;51.616;6.680;2022-12-18T01:59:45;15.63;;;7.27;;
70067;SDS011;57425;51.616;6.680;2022-12-18T02:02:15;23.07;;;6.93;;
70067;SDS011;57425;51.616;6.680;2022-12-18T02:04:42;20.60;;;7.43;;
70067;SDS011;57425;51.616;6.680;2022-12-18T02:10:17;18.03;;;7.40;;
70067;SDS011;57425;51.616;6.680;2022-12-18T02:12:56;20.93;;;8.00;;
70067;SDS011;57425;51.616;6.680;2022-12-18T02:18:33;17.10;;;7.03;;
70067;SDS011;57425;51.616;6.680;2022-12-18T02:23:47;15.63;;;6.23;;
70067;SDS011;57425;51.616;6.680;2022-12-18T02:26:27;13.93;;;6.10;;
70067;SDS011;57425;51.616;6.680;2022-12-18T02:29:08;19.07;;;6.77;;
70067;SDS011;57425;51.616;6.680;2022-12-18T02:31:57;16.60;;;5.87;;
70067;SDS011;57425;51.616;6.680;2022-12-18T02:34:31;22.20;;;7.40;;
70067;SDS011;57425;51.616;6.680;2022-12-18T02:36:59;13.43;;;6.37;;
70067;SDS011;57425;51.616;6.680;2022-12-18T02:39:28;20.57;;;8.37;;
70067;SDS011;57425;51.616;6.680;2022-12-18T02:41:56;28.37;;;8.10;;
70067;SDS011;57425;51.616;6.680;2022-12-18T02:44:22;17.37;;;7.47;;
70067;SDS011;57425;51.616;6.680;2022-12-18T02:46:49;18.20;;;7.90;;
70067;SDS011;57425;51.616;6.680;2022-12-18T02:52:02;17.13;;;7.33;;
70067;SDS011;57425;51.616;6.680;2022-12-18T02:54:55;22.43;;;8.37;;
70067;SDS011;57425;51.616;6.680;2022-12-18T03:02:37;27.83;;;8.07;;
70067;SDS011;57425;51.616;6.680;2022-12-18T03:07:53;18.47;;;8.10;;
70067;SDS011;57425;51.616;6.680;2022-12-18T03:10:25;24.70;;;8.80;;
70067;SDS011;57425;51.616;6.680;2022-12-18T03:12:59;23.77;;;9.33;;
70067;SDS011;57425;51.616;6.680;2022-12-18T03:15:30;30.58;;;10.57;;
70067;SDS011;57425;51.616;6.680;2022-12-18T03:18:04;28.77;;;9.47;;
70067;SDS011;57425;51.616;6.680;2022-12-18T03:20:37;31.50;;;9.87;;
70067;SDS011;57425;51.616;6.680;2022-12-18T03:23:08;29.60;;;10.10;;
70067;SDS011;57425;51.616;6.680;2022-12-18T03:25:37;23.27;;;9.70;;
70067;SDS011;57425;51.616;6.680;2022-12-18T03:28:07;29.13;;;9.83;;
70067;SDS011;57425;51.616;6.680;2022-12-18T03:30:37;22.90;;;8.90;;
70067;SDS011;57425;51.616;6.680;2022-12-18T03:33:08;29.87;;;10.67;;
70067;SDS011;57425;51.616;6.680;2022-12-18T03:35:41;27.50;;;9.00;;
70067;SDS011;57425;51.616;6.680;2022-12-18T03:38:08;28.77;;;9.67;;
70067;SDS011;57425;51.616;6.680;2022-12-18T03:40:41;30.00;;;10.70;;
70067;SDS011;57425;51.616;6.680;2022-12-18T03:45:59;29.90;;;9.53;;
70067;SDS011;57425;51.616;6.680;2022-12-18T03:48:52;29.57;;;10.70;;
70067;SDS011;57425;51.616;6.680;2022-12-18T03:51:37;32.23;;;9.83;;
70067;SDS011;57425;51.616;6.680;2022-12-18T03:54:15;29.57;;;9.63;;
70067;SDS011;57425;51.616;6.680;2022-12-18T03:56:43;29.63;;;9.90;;
70067;SDS011;57425;51.616;6.680;2022-12-18T04:01:43;28.10;;;9.83;;
70067;SDS011;57425;51.616;6.680;2022-12-18T04:04:12;29.87;;;11.50;;
70067;SDS011;57425;51.616;6.680;2022-12-18T04:06:40;32.13;;;9.73;;
70067;SDS011;57425;51.616;6.680;2022-12-18T04:09:06;36.27;;;10.80;;
70067;SDS011;57425;51.616;6.680;2022-12-18T04:11:32;27.13;;;9.83;;
70067;SDS011;57425;51.616;6.680;2022-12-18T04:13:58;25.40;;;9.80;;
70067;SDS011;57425;51.616;6.680;2022-12-18T04:16:25;26.60;;;9.00;;
70067;SDS011;57425;51.616;6.680;2022-12-18T04:18:51;23.13;;;8.47;;
70067;SDS011;57425;51.616;6.680;2022-12-18T04:21:17;28.43;;;10.60;;
70067;SDS011;57425;51.616;6.680;2022-12-18T04:23:42;28.80;;;10.07;;
70067;SDS011;57425;51.616;6.680;2022-12-18T04:26:08;32.00;;;9.80;;
70067;SDS011;57425;51.616;6.680;2022-12-18T04:28:33;25.70;;;9.37;;
70067;SDS011;57425;51.616;6.680;2022-12-18T04:30:59;27.07;;;9.10;;
70067;SDS011;57425;51.616;6.680;2022-12-18T04:33:25;28.33;;;11.03;;
70067;SDS011;57425;51.616;6.680;2022-12-18T04:35:50;27.50;;;9.60;;
70067;SDS011;57425;51.616;6.680;2022-12-18T04:38:16;21.80;;;8.47;;
70067;SDS011;57425;51.616;6.680;2022-12-18T04:40:41;28.00;;;8.93;;
70067;SDS011;57425;51.616;6.680;2022-12-18T04:43:08;21.57;;;8.53;;
70067;SDS011;57425;51.616;6.680;2022-12-18T04:45:33;25.00;;;9.17;;
70067;SDS011;57425;51.616;6.680;2022-12-18T04:47:59;31.50;;;9.37;;
70067;SDS011;57425;51.616;6.680;2022-12-18T04:50:26;26.03;;;8.27;;
70067;SDS011;57425;51.616;6.680;2022-12-18T04:52:52;24.63;;;10.13;;
70067;SDS011;57425;51.616;6.680;2022-12-18T04:55:18;17.73;;;7.93;;
70067;SDS011;57425;51.616;6.680;2022-12-18T04:57:43;28.37;;;8.63;;
70067;SDS011;57425;51.616;6.680;2022-12-18T05:00:09;24.47;;;9.37;;
70067;SDS011;57425;51.616;6.680;2022-12-18T05:02:35;23.27;;;8.70;;
70067;SDS011;57425;51.616;6.680;2022-12-18T05:05:01;22.77;;;9.37;;
70067;SDS011;57425;51.616;6.680;2022-12-18T05:07:27;30.57;;;9.20;;
70067;SDS011;57425;51.616;6.680;2022-12-18T05:09:53;24.50;;;9.17;;
70067;SDS011;57425;51.616;6.680;2022-12-18T05:12:18;23.17;;;9.40;;
70067;SDS011;57425;51.616;6.680;2022-12-18T05:14:44;30.60;;;8.17;;
70067;SDS011;57425;51.616;6.680;2022-12-18T05:17:09;19.87;;;7.93;;
70067;SDS011;57425;51.616;6.680;2022-12-18T05:19:38;26.17;;;9.93;;
70067;SDS011;57425;51.616;6.680;2022-12-18T05:22:07;23.60;;;8.97;;
70067;SDS011;57425;51.616;6.680;2022-12-18T05:24:33;21.30;;;8.10;;
70067;SDS011;57425;51.616;6.680;2022-12-18T05:26:58;30.40;;;9.83;;
70067;SDS011;57425;51.616;6.680;2022-12-18T05:29:24;20.47;;;8.03;;
70067;SDS011;57425;51.616;6.680;2022-12-18T05:31:50;22.03;;;8.67;;
70067;SDS011;57425;51.616;6.680;2022-12-18T05:34:16;20.20;;;8.77;;
70067;SDS011;57425;51.616;6.680;2022-12-18T05:36:41;19.87;;;7.87;;
70067;SDS011;57425;51.616;6.680;2022-12-18T05:39:07;23.67;;;8.30;;
70067;SDS011;57425;51.616;6.680;2022-12-18T05:41:32;26.13;;;9.30;;
70067;SDS011;57425;51.616;6.680;2022-12-18T05:43:58;27.63;;;9.10;;
70067;SDS011;57425;51.616;6.680;2022-12-18T05:46:24;24.23;;;9.57;;
70067;SDS011;57425;51.616;6.680;2022-12-18T05:48:49;22.07;;;8.40;;
70067;SDS011;57425;51.616;6.680;2022-12-18T05:51:16;26.63;;;9.73;;
70067;SDS011;57425;51.616;6.680;2022-12-18T05:53:43;20.63;;;8.67;;
70067;SDS011;57425;51.616;6.680;2022-12-18T05:56:11;26.57;;;10.33;;
70067;SDS011;57425;51.616;6.680;2022-12-18T05:58:39;23.50;;;9.30;;
70067;SDS011;57425;51.616;6.680;2022-12-18T06:01:16;22.20;;;9.80;;
70067;SDS011;57425;51.616;6.680;2022-12-18T06:03:43;25.43;;;9.10;;
70067;SDS011;57425;51.616;6.680;2022-12-18T06:06:16;31.03;;;10.00;;
70067;SDS011;57425;51.616;6.680;2022-12-18T06:08:50;27.87;;;9.27;;
70067;SDS011;57425;51.616;6.680;2022-12-18T06:11:17;20.10;;;8.50;;
70067;SDS011;57425;51.616;6.680;2022-12-18T06:13:45;32.67;;;11.93;;
70067;SDS011;57425;51.616;6.680;2022-12-18T06:16:11;32.07;;;9.50;;
70067;SDS011;57425;51.616;6.680;2022-12-18T06:18:37;34.37;;;10.07;;
70067;SDS011;57425;51.616;6.680;2022-12-18T06:21:03;25.63;;;9.23;;
70067;SDS011;57425;51.616;6.680;2022-12-18T06:23:28;23.20;;;9.20;;
70067;SDS011;57425;51.616;6.680;2022-12-18T06:25:54;29.10;;;10.27;;
70067;SDS011;57425;51.616;6.680;2022-12-18T06:28:20;24.90;;;9.00;;
70067;SDS011;57425;51.616;6.680;2022-12-18T06:30:46;25.00;;;8.47;;
70067;SDS011;57425;51.616;6.680;2022-12-18T06:33:13;26.80;;;8.40;;
70067;SDS011;57425;51.616;6.680;2022-12-18T06:35:40;26.13;;;10.53;;
70067;SDS011;57425;51.616;6.680;2022-12-18T06:38:05;26.30;;;9.63;;
70067;SDS011;57425;51.616;6.680;2022-12-18T06:40:31;31.50;;;12.43;;
70067;SDS011;57425;51.616;6.680;2022-12-18T06:42:57;31.90;;;9.73;;
70067;SDS011;57425;51.616;6.680;2022-12-18T06:45:23;30.37;;;10.70;;
70067;SDS011;57425;51.616;6.680;2022-12-18T06:47:49;34.13;;;11.00;;
70067;SDS011;57425;51.616;6.680;2022-12-18T06:50:15;27.30;;;9.53;;
70067;SDS011;57425;51.616;6.680;2022-12-18T06:52:41;26.40;;;9.80;;
70067;SDS011;57425;51.616;6.680;2022-12-18T06:55:08;28.67;;;9.13;;
70067;SDS011;57425;51.616;6.680;2022-12-18T06:57:35;27.17;;;10.17;;
70067;SDS011;57425;51.616;6.680;2022-12-18T07:00:02;27.73;;;9.77;;
70067;SDS011;57425;51.616;6.680;2022-12-18T07:02:29;21.07;;;9.20;;
70067;SDS011;57425;51.616;6.680;2022-12-18T07:04:55;23.90;;;9.23;;
70067;SDS011;57425;51.616;6.680;2022-12-18T07:07:20;29.57;;;9.87;;
70067;SDS011;57425;51.616;6.680;2022-12-18T07:09:46;26.10;;;9.03;;
70067;SDS011;57425;51.616;6.680;2022-12-18T07:12:11;25.10;;;10.10;;
70067;SDS011;57425;51.616;6.680;2022-12-18T07:14:37;18.73;;;7.73;;
70067;SDS011;57425;51.616;6.680;2022-12-18T07:17:03;25.43;;;9.40;;
70067;SDS011;57425;51.616;6.680;2022-12-18T07:19:29;26.93;;;10.67;;
70067;SDS011;57425;51.616;6.680;2022-12-18T07:21:55;21.07;;;9.13;;
70067;SDS011;57425;51.616;6.680;2022-12-18T07:24:20;29.77;;;12.57;;
70067;SDS011;57425;51.616;6.680;2022-12-18T07:26:46;24.17;;;8.53;;
70067;SDS011;57425;51.616;6.680;2022-12-18T07:29:12;34.13;;;8.93;;
70067;SDS011;57425;51.616;6.680;2022-12-18T07:31:38;26.53;;;9.57;;
70067;SDS011;57425;51.616;6.680;2022-12-18T07:34:03;28.30;;;9.07;;
70067;SDS011;57425;51.616;6.680;2022-12-18T07:36:29;21.07;;;8.90;;
70067;SDS011;57425;51.616;6.680;2022-12-18T07:38:55;30.43;;;11.00;;
70067;SDS011;57425;51.616;6.680;2022-12-18T07:41:21;30.40;;;10.73;;
70067;SDS011;57425;51.616;6.680;2022-12-18T07:43:47;33.80;;;11.10;;
70067;SDS011;57425;51.616;6.680;2022-12-18T07:46:13;30.17;;;10.73;;
70067;SDS011;57425;51.616;6.680;2022-12-18T07:48:43;26.00;;;10.93;;
70067;SDS011;57425;51.616;6.680;2022-12-18T07:51:12;34.00;;;10.03;;
70067;SDS011;57425;51.616;6.680;2022-12-18T07:53:38;22.07;;;9.57;;
70067;SDS011;57425;51.616;6.680;2022-12-18T07:56:06;23.83;;;9.20;;
70067;SDS011;57425;51.616;6.680;2022-12-18T07:58:33;24.00;;;8.93;;
70067;SDS011;57425;51.616;6.680;2022-12-18T08:01:06;18.30;;;8.80;;
70067;SDS011;57425;51.616;6.680;2022-12-18T08:03:33;23.10;;;9.27;;
70067;SDS011;57425;51.616;6.680;2022-12-18T08:06:03;29.83;;;9.23;;
70067;SDS011;57425;51.616;6.680;2022-12-18T08:08:31;23.27;;;8.97;;
70067;SDS011;57425;51.616;6.680;2022-12-18T08:10:58;24.47;;;8.50;;
70067;SDS011;57425;51.616;6.680;2022-12-18T08:13:24;31.83;;;8.60;;
70067;SDS011;57425;51.616;6.680;2022-12-18T08:16:03;22.63;;;8.40;;
70067;SDS011;57425;51.616;6.680;2022-12-18T08:18:37;25.73;;;8.53;;
70067;SDS011;57425;51.616;6.680;2022-12-18T08:21:10;19.73;;;7.67;;
70067;SDS011;57425;51.616;6.680;2022-12-18T08:23:40;34.77;;;9.80;;
70067;SDS011;57425;51.616;6.680;2022-12-18T08:26:06;30.33;;;9.07;;
70067;SDS011;57425;51.616;6.680;2022-12-18T08:28:32;23.73;;;9.07;;
70067;SDS011;57425;51.616;6.680;2022-12-18T08:30:58;28.37;;;8.63;;
70067;SDS011;57425;51.616;6.680;2022-12-18T08:33:24;22.17;;;8.87;;
70067;SDS011;57425;51.616;6.680;2022-12-18T08:35:51;18.90;;;8.43;;
70067;SDS011;57425;51.616;6.680;2022-12-18T08:38:17;19.73;;;7.13;;
70067;SDS011;57425;51.616;6.680;2022-12-18T08:40:42;21.60;;;7.43;;
70067;SDS011;57425;51.616;6.680;2022-12-18T08:43:09;26.80;;;8.57;;
70067;SDS011;57425;51.616;6.680;2022-12-18T08:45:54;24.13;;;7.93;;
70067;SDS011;57425;51.616;6.680;2022-12-18T08:48:20;26.17;;;9.20;;
70067;SDS011;57425;51.616;6.680;2022-12-18T08:51:04;19.20;;;8.67;;
70067;SDS011;57425;51.616;6.680;2022-12-18T08:55:58;22.80;;;7.53;;
70067;SDS011;57425;51.616;6.680;2022-12-18T08:58:24;17.10;;;8.83;;
70067;SDS011;57425;51.616;6.680;2022-12-18T09:00:50;22.07;;;7.97;;
70067;SDS011;57425;51.616;6.680;2022-12-18T09:03:16;20.03;;;8.90;;
70067;SDS011;57425;51.616;6.680;2022-12-18T09:05:43;18.57;;;7.17;;
70067;SDS011;57425;51.616;6.680;2022-12-18T09:08:10;24.80;;;8.90;;
70067;SDS011;57425;51.616;6.680;2022-12-18T09:10:43;21.00;;;7.17;;
70067;SDS011;57425;51.616;6.680;2022-12-18T09:13:12;16.80;;;7.57;;
70067;SDS011;57425;51.616;6.680;2022-12-18T09:15:42;18.77;;;6.97;;
70067;SDS011;57425;51.616;6.680;2022-12-18T09:18:12;18.17;;;6.97;;
70067;SDS011;57425;51.616;6.680;2022-12-18T09:20:39;18.63;;;8.60;;
70067;SDS011;57425;51.616;6.680;2022-12-18T09:23:05;24.50;;;9.40;;
70067;SDS011;57425;51.616;6.680;2022-12-18T09:25:32;24.53;;;8.47;;
70067;SDS011;57425;51.616;6.680;2022-12-18T09:28:01;26.37;;;8.53;;
70067;SDS011;57425;51.616;6.680;2022-12-18T09:30:28;21.93;;;6.90;;
70067;SDS011;57425;51.616;6.680;2022-12-18T09:32:54;26.13;;;8.40;;
70067;SDS011;57425;51.616;6.680;2022-12-18T09:35:19;19.07;;;7.30;;
70067;SDS011;57425;51.616;6.680;2022-12-18T09:37:45;27.53;;;7.93;;
70067;SDS011;57425;51.616;6.680;2022-12-18T09:40:14;17.87;;;7.10;;
70067;SDS011;57425;51.616;6.680;2022-12-18T09:42:43;13.33;;;7.33;;
70067;SDS011;57425;51.616;6.680;2022-12-18T09:45:13;17.57;;;6.97;;
70067;SDS011;57425;51.616;6.680;2022-12-18T09:47:40;16.67;;;6.47;;
70067;SDS011;57425;51.616;6.680;2022-12-18T09:50:29;16.30;;;6.97;;
70067;SDS011;57425;51.616;6.680;2022-12-18T09:53:03;20.33;;;6.75;;
70067;SDS011;57425;51.616;6.680;2022-12-18T09:55:38;21.13;;;7.40;;
70067;SDS011;57425;51.616;6.680;2022-12-18T09:58:30;15.60;;;7.40;;
70067;SDS011;57425;51.616;6.680;2022-12-18T10:01:10;20.00;;;7.23;;
70067;SDS011;57425;51.616;6.680;2022-12-18T10:03:38;13.17;;;6.03;;
70067;SDS011;57425;51.616;6.680;2022-12-18T10:06:10;27.60;;;7.23;;
70067;SDS011;57425;51.616;6.680;2022-12-18T10:08:51;20.50;;;7.10;;
70067;SDS011;57425;51.616;6.680;2022-12-18T10:11:22;12.37;;;6.20;;
70067;SDS011;57425;51.616;6.680;2022-12-18T10:14:00;22.50;;;8.13;;
70067;SDS011;57425;51.616;6.680;2022-12-18T10:19:34;13.80;;;6.20;;
70067;SDS011;57425;51.616;6.680;2022-12-18T10:27:29;16.37;;;7.70;;
70067;SDS011;57425;51.616;6.680;2022-12-18T10:29:55;14.13;;;5.97;;
70067;SDS011;57425;51.616;6.680;2022-12-18T10:32:23;17.23;;;6.47;;
70067;SDS011;57425;51.616;6.680;2022-12-18T10:34:54;20.20;;;5.83;;
70067;SDS011;57425;51.616;6.680;2022-12-18T10:37:24;13.30;;;6.23;;
70067;SDS011;57425;51.616;6.680;2022-12-18T10:42:37;18.87;;;6.20;;
70067;SDS011;57425;51.616;6.680;2022-12-18T10:47:36;17.75;;;6.13;;
70067;SDS011;57425;51.616;6.680;2022-12-18T10:50:24;17.70;;;7.33;;
70067;SDS011;57425;51.616;6.680;2022-12-18T10:52:57;11.47;;;5.60;;
70067;SDS011;57425;51.616;6.680;2022-12-18T10:55:39;15.33;;;7.13;;
70067;SDS011;57425;51.616;6.680;2022-12-18T10:58:22;16.97;;;7.03;;
70067;SDS011;57425;51.616;6.680;2022-12-18T11:03:37;14.50;;;5.93;;
70067;SDS011;57425;51.616;6.680;2022-12-18T11:06:14;13.60;;;5.57;;
70067;SDS011;57425;51.616;6.680;2022-12-18T11:08:57;12.53;;;5.67;;
70067;SDS011;57425;51.616;6.680;2022-12-18T11:11:23;15.87;;;6.47;;
70067;SDS011;57425;51.616;6.680;2022-12-18T11:14:05;24.47;;;6.63;;
70067;SDS011;57425;51.616;6.680;2022-12-18T11:16:42;14.47;;;7.03;;
70067;SDS011;57425;51.616;6.680;2022-12-18T11:21:56;12.63;;;5.10;;
70067;SDS011;57425;51.616;6.680;2022-12-18T11:24:32;19.20;;;6.27;;
70067;SDS011;57425;51.616;6.680;2022-12-18T11:27:01;14.33;;;6.03;;
70067;SDS011;57425;51.616;6.680;2022-12-18T11:29:33;15.37;;;6.13;;
70067;SDS011;57425;51.616;6.680;2022-12-18T11:35:18;11.93;;;5.73;;
70067;SDS011;57425;51.616;6.680;2022-12-18T11:38:11;14.77;;;5.80;;
70067;SDS011;57425;51.616;6.680;2022-12-18T11:40:45;11.93;;;5.20;;
70067;SDS011;57425;51.616;6.680;2022-12-18T11:43:17;14.97;;;5.67;;
70067;SDS011;57425;51.616;6.680;2022-12-18T11:45:55;14.03;;;6.20;;
70067;SDS011;57425;51.616;6.680;2022-12-18T11:48:29;11.07;;;4.50;;
70067;SDS011;57425;51.616;6.680;2022-12-18T11:50:59;13.87;;;4.97;;
70067;SDS011;57425;51.616;6.680;2022-12-18T11:53:28;14.60;;;6.73;;
70067;SDS011;57425;51.616;6.680;2022-12-18T12:01:59;18.15;;;5.80;;
70067;SDS011;57425;51.616;6.680;2022-12-18T12:05:05;15.50;;;5.67;;
70067;SDS011;57425;51.616;6.680;2022-12-18T12:26:07;11.13;;;5.60;;
70067;SDS011;57425;51.616;6.680;2022-12-18T12:39:35;12.77;;;6.13;;
70067;SDS011;57425;51.616;6.680;2022-12-18T12:42:04;14.77;;;6.13;;
70067;SDS011;57425;51.616;6.680;2022-12-18T12:44:55;14.67;;;6.17;;
70067;SDS011;57425;51.616;6.680;2022-12-18T12:47:25;16.70;;;6.83;;
70067;SDS011;57425;51.616;6.680;2022-12-18T12:49:54;17.30;;;6.60;;
70067;SDS011;57425;51.616;6.680;2022-12-18T12:52:30;8.67;;;4.83;;
70067;SDS011;57425;51.616;6.680;2022-12-18T12:55:02;17.83;;;4.90;;
70067;SDS011;57425;51.616;6.680;2022-12-18T12:57:31;11.83;;;5.43;;
70067;SDS011;57425;51.616;6.680;2022-12-18T13:00:19;17.60;;;7.07;;
70067;SDS011;57425;51.616;6.680;2022-12-18T13:07:59;7.70;;;3.57;;
70067;SDS011;57425;51.616;6.680;2022-12-18T13:13:04;8.40;;;4.75;;
70067;SDS011;57425;51.616;6.680;2022-12-18T13:15:47;15.18;;;4.13;;
70067;SDS011;57425;51.616;6.680;2022-12-18T13:18:27;12.57;;;4.87;;
70067;SDS011;57425;51.616;6.680;2022-12-18T13:25:58;9.67;;;3.77;;
70067;SDS011;57425;51.616;6.680;2022-12-18T13:34:20;8.25;;;5.00;;
70067;SDS011;57425;51.616;6.680;2022-12-18T13:36:47;7.33;;;3.30;;
70067;SDS011;57425;51.616;6.680;2022-12-18T13:41:42;8.63;;;3.57;;
70067;SDS011;57425;51.616;6.680;2022-12-18T13:46:59;8.07;;;3.27;;
70067;SDS011;57425;51.616;6.680;2022-12-18T13:49:36;7.20;;;3.40;;
70067;SDS011;57425;51.616;6.680;2022-12-18T13:52:15;19.13;;;3.70;;
70067;SDS011;57425;51.616;6.680;2022-12-18T13:54:50;3.60;;;1.90;;
70067;SDS011;57425;51.616;6.680;2022-12-18T14:02:58;5.47;;;2.37;;
70067;SDS011;57425;51.616;6.680;2022-12-18T14:08:08;8.73;;;3.70;;
70067;SDS011;57425;51.616;6.680;2022-12-18T14:10:42;5.97;;;3.20;;
70067;SDS011;57425;51.616;6.680;2022-12-18T14:13:09;3.97;;;1.33;;
70067;SDS011;57425;51.616;6.680;2022-12-18T14:15:41;5.73;;;3.17;;
70067;SDS011;57425;51.616;6.680;2022-12-18T14:20:50;12.60;;;3.03;;
70067;SDS011;57425;51.616;6.680;2022-12-18T14:23:28;8.93;;;4.00;;
70067;SDS011;57425;51.616;6.680;2022-12-18T14:25:54;10.93;;;3.77;;
70067;SDS011;57425;51.616;6.680;2022-12-18T14:28:20;4.53;;;2.10;;
70067;SDS011;57425;51.616;6.680;2022-12-18T14:30:47;14.60;;;5.00;;
70067;SDS011;57425;51.616;6.680;2022-12-18T14:33:14;13.40;;;4.43;;
70067;SDS011;57425;51.616;6.680;2022-12-18T14:38:23;10.87;;;3.77;;
70067;SDS011;57425;51.616;6.680;2022-12-18T14:40:52;13.27;;;4.93;;
70067;SDS011;57425;51.616;6.680;2022-12-18T14:43:26;10.03;;;4.13;;
70067;SDS011;57425;51.616;6.680;2022-12-18T14:45:53;10.63;;;3.90;;
70067;SDS011;57425;51.616;6.680;2022-12-18T14:48:21;11.07;;;5.27;;
70067;SDS011;57425;51.616;6.680;2022-12-18T14:50:54;8.03;;;3.43;;
70067;SDS011;57425;51.616;6.680;2022-12-18T14:53:43;15.87;;;4.17;;
70067;SDS011;57425;51.616;6.680;2022-12-18T14:56:21;8.87;;;3.50;;
70067;SDS011;57425;51.616;6.680;2022-12-18T14:58:59;14.10;;;4.73;;
70067;SDS011;57425;51.616;6.680;2022-12-18T15:03:54;8.53;;;4.03;;
70067;SDS011;57425;51.616;6.680;2022-12-18T15:06:26;11.47;;;3.73;;
70067;SDS011;57425;51.616;6.680;2022-12-18T15:08:57;9.87;;;4.67;;
70067;SDS011;57425;51.616;6.680;2022-12-18T15:11:44;15.23;;;5.60;;
70067;SDS011;57425;51.616;6.680;2022-12-18T15:14:30;11.93;;;4.85;;
70067;SDS011;57425;51.616;6.680;2022-12-18T15:16:58;8.60;;;3.27;;
70067;SDS011;57425;51.616;6.680;2022-12-18T15:19:31;10.57;;;4.63;;
70067;SDS011;57425;51.616;6.680;2022-12-18T15:22:00;14.63;;;4.10;;
70067;SDS011;57425;51.616;6.680;2022-12-18T15:24:27;13.47;;;5.07;;
70067;SDS011;57425;51.616;6.680;2022-12-18T15:26:56;8.90;;;4.57;;
70067;SDS011;57425;51.616;6.680;2022-12-18T15:29:22;16.60;;;6.03;;
70067;SDS011;57425;51.616;6.680;2022-12-18T15:32:04;5.57;;;2.63;;
70067;SDS011;57425;51.616;6.680;2022-12-18T15:34:31;17.50;;;6.93;;
70067;SDS011;57425;51.616;6.680;2022-12-18T15:36:59;18.00;;;5.37;;
70067;SDS011;57425;51.616;6.680;2022-12-18T15:39:24;12.40;;;4.73;;
70067;SDS011;57425;51.616;6.680;2022-12-18T15:41:50;17.57;;;5.43;;
70067;SDS011;57425;51.616;6.680;2022-12-18T15:44:35;11.73;;;4.97;;
70067;SDS011;57425;51.616;6.680;2022-12-18T15:47:02;16.27;;;6.77;;
70067;SDS011;57425;51.616;6.680;2022-12-18T15:49:28;6.77;;;3.20;;
70067;SDS011;57425;51.616;6.680;2022-12-18T15:51:54;8.00;;;4.57;;
70067;SDS011;57425;51.616;6.680;2022-12-18T15:54:23;4.10;;;2.10;;
70067;SDS011;57425;51.616;6.680;2022-12-18T15:57:08;21.00;;;5.90;;
70067;SDS011;57425;51.616;6.680;2022-12-18T15:59:50;8.73;;;4.45;;
70067;SDS011;57425;51.616;6.680;2022-12-18T16:02:21;12.10;;;4.67;;
70067;SDS011;57425;51.616;6.680;2022-12-18T16:04:48;18.70;;;6.30;;
70067;SDS011;57425;51.616;6.680;2022-12-18T16:07:14;7.43;;;2.67;;
70067;SDS011;57425;51.616;6.680;2022-12-18T16:09:40;15.97;;;6.47;;
70067;SDS011;57425;51.616;6.680;2022-12-18T16:12:17;21.47;;;5.53;;
70067;SDS011;57425;51.616;6.680;2022-12-18T16:14:45;28.43;;;7.10;;
70067;SDS011;57425;51.616;6.680;2022-12-18T16:17:11;20.70;;;6.00;;
70067;SDS011;57425;51.616;6.680;2022-12-18T16:19:38;11.60;;;4.73;;
70067;SDS011;57425;51.616;6.680;2022-12-18T16:22:03;13.80;;;4.77;;
70067;SDS011;57425;51.616;6.680;2022-12-18T16:24:30;10.10;;;3.67;;
70067;SDS011;57425;51.616;6.680;2022-12-18T16:26:59;16.13;;;5.97;;
70067;SDS011;57425;51.616;6.680;2022-12-18T16:29:25;16.70;;;5.50;;
70067;SDS011;57425;51.616;6.680;2022-12-18T16:32:01;11.90;;;4.83;;
70067;SDS011;57425;51.616;6.680;2022-12-18T16:34:31;22.57;;;6.63;;
70067;SDS011;57425;51.616;6.680;2022-12-18T16:36:59;14.40;;;5.40;;
70067;SDS011;57425;51.616;6.680;2022-12-18T16:39:29;14.80;;;5.57;;
70067;SDS011;57425;51.616;6.680;2022-12-18T16:41:55;15.43;;;6.10;;
70067;SDS011;57425;51.616;6.680;2022-12-18T16:44:21;14.27;;;5.83;;
70067;SDS011;57425;51.616;6.680;2022-12-18T16:46:47;7.90;;;4.40;;
70067;SDS011;57425;51.616;6.680;2022-12-18T16:49:14;18.53;;;6.23;;
70067;SDS011;57425;51.616;6.680;2022-12-18T16:51:41;18.13;;;5.83;;
70067;SDS011;57425;51.616;6.680;2022-12-18T16:54:07;14.50;;;6.47;;
70067;SDS011;57425;51.616;6.680;2022-12-18T16:56:33;13.20;;;6.20;;
70067;SDS011;57425;51.616;6.680;2022-12-18T16:58:59;19.23;;;6.97;;